createdAt,value
2018-12-31T00:00:08.714Z,5.00
2018-12-31T00:02:51.517Z,4.80
2018-12-31T00:05:36.101Z,4.80
2018-12-31T00:08:21.035Z,4.80
2018-12-31T00:11:06.212Z,4.90
2018-12-31T00:13:51.073Z,4.80
2018-12-31T00:16:36.425Z,4.90
2018-12-31T00:19:21.302Z,5.00
2018-12-31T00:22:06.253Z,5.00
2018-12-31T00:24:51.074Z,4.80
2018-12-31T00:27:36.683Z,4.80
2018-12-31T00:30:21.625Z,4.70
2018-12-31T00:33:06.236Z,4.70
2018-12-31T00:35:51.536Z,4.80
2018-12-31T00:38:23.617Z,4.90
2018-12-31T00:41:15.785Z,4.80
2018-12-31T00:44:01.158Z,4.70
2018-12-31T00:46:46.270Z,4.70
2018-12-31T00:49:31.198Z,4.70
2018-12-31T00:52:16.161Z,4.70
2018-12-31T00:55:01.177Z,4.70
2018-12-31T00:57:46.414Z,4.80
2018-12-31T01:00:31.447Z,4.80
2018-12-31T01:03:16.318Z,4.90
2018-12-31T01:06:01.865Z,5.00
2018-12-31T01:08:34.176Z,4.90
2018-12-31T01:11:25.958Z,4.90
2018-12-31T01:14:10.485Z,4.90
2018-12-31T01:16:56.137Z,4.90
2018-12-31T01:19:40.909Z,4.90
2018-12-31T01:22:26.073Z,4.90
2018-12-31T01:25:11.540Z,5.10
2018-12-31T01:27:56.230Z,5.00
2018-12-31T01:30:41.354Z,5.20
2018-12-31T01:33:26.368Z,5.20
2018-12-31T01:36:11.465Z,5.10
2018-12-31T01:38:56.590Z,5.00
2018-12-31T01:41:41.906Z,4.90
2018-12-31T01:44:26.768Z,4.90
2018-12-31T01:46:59.189Z,4.90
2018-12-31T01:49:50.638Z,4.80
2018-12-31T01:52:35.465Z,5.00
2018-12-31T01:55:20.573Z,5.00
2018-12-31T01:57:53.027Z,4.80
2018-12-31T02:00:45.197Z,4.90
2018-12-31T02:03:17.616Z,4.90
2018-12-31T02:06:09.123Z,5.00
2018-12-31T02:08:54.100Z,5.00
2018-12-31T02:11:39.229Z,5.00
2018-12-31T02:14:24.246Z,4.90
2018-12-31T02:17:09.205Z,4.70
2018-12-31T02:19:41.512Z,4.80
2018-12-31T02:22:26.112Z,4.80
2018-12-31T02:25:11.301Z,4.90
2018-12-31T02:27:43.690Z,5.00
2018-12-31T02:30:35.458Z,4.90
2018-12-31T02:33:20.691Z,4.90
2018-12-31T02:36:05.862Z,5.00
2018-12-31T02:38:51.023Z,4.80
2018-12-31T02:41:35.952Z,4.70
2018-12-31T02:44:20.916Z,4.80
2018-12-31T02:47:06.141Z,4.90
2018-12-31T02:49:51.041Z,5.20
2018-12-31T02:52:36.095Z,5.10
2018-12-31T02:55:20.905Z,5.10
2018-12-31T02:58:05.836Z,5.10
2018-12-31T03:00:37.857Z,4.90
2018-12-31T03:03:29.459Z,4.80
2018-12-31T03:06:14.774Z,4.70
2018-12-31T03:08:59.789Z,4.70
2018-12-31T03:11:44.840Z,4.70
2018-12-31T03:14:29.885Z,4.80
2018-12-31T03:17:14.878Z,4.70
2018-12-31T03:19:59.944Z,4.70
2018-12-31T03:22:45.330Z,4.70
2018-12-31T03:25:30.022Z,4.80
2018-12-31T03:28:15.198Z,4.80
2018-12-31T03:31:00.172Z,4.80
2018-12-31T03:33:45.634Z,4.70
2018-12-31T03:36:30.556Z,4.60
2018-12-31T03:39:15.767Z,4.60
2018-12-31T03:42:01.073Z,4.60
2018-12-31T03:44:45.854Z,4.60
2018-12-31T03:47:30.872Z,4.60
2018-12-31T03:50:15.882Z,4.90
2018-12-31T03:53:00.876Z,4.70
2018-12-31T03:55:45.947Z,4.60
2018-12-31T03:58:30.761Z,4.60
2018-12-31T04:01:15.799Z,4.50
2018-12-31T04:04:00.677Z,4.50
2018-12-31T04:06:45.786Z,4.50
2018-12-31T04:09:30.993Z,4.40
2018-12-31T04:12:15.861Z,4.40
2018-12-31T04:15:00.598Z,4.60
2018-12-31T04:17:45.656Z,4.60
2018-12-31T04:20:30.554Z,4.60
2018-12-31T04:23:15.828Z,4.50
2018-12-31T04:26:00.709Z,4.50
2018-12-31T04:28:45.696Z,4.60
2018-12-31T04:31:30.694Z,4.60
2018-12-31T04:34:15.883Z,4.70
2018-12-31T04:37:00.992Z,4.70
2018-12-31T04:39:45.977Z,4.70
2018-12-31T04:42:31.017Z,4.60
2018-12-31T04:45:16.014Z,4.70
2018-12-31T04:48:01.151Z,4.60
2018-12-31T04:50:46.906Z,4.60
2018-12-31T04:53:32.363Z,4.50
2018-12-31T04:56:17.101Z,4.40
2018-12-31T04:59:02.241Z,4.30
2018-12-31T05:01:47.282Z,4.30
2018-12-31T05:04:32.470Z,4.40
2018-12-31T05:07:17.377Z,4.50
2018-12-31T05:10:02.135Z,4.40
2018-12-31T05:12:47.279Z,4.50
2018-12-31T05:15:32.405Z,4.50
2018-12-31T05:18:17.554Z,4.90
2018-12-31T05:21:02.501Z,4.90
2018-12-31T05:23:47.519Z,4.90
2018-12-31T05:26:32.681Z,4.90
2018-12-31T05:29:17.822Z,4.80
2018-12-31T05:32:02.798Z,4.80
2018-12-31T05:34:47.905Z,4.80
2018-12-31T05:37:32.633Z,4.90
2018-12-31T05:40:05.285Z,5.00
2018-12-31T05:42:57.150Z,4.90
2018-12-31T05:45:36.206Z,4.80
2018-12-31T05:48:27.851Z,4.80
2018-12-31T05:51:12.443Z,4.80
2018-12-31T05:53:57.883Z,4.80
2018-12-31T05:56:42.802Z,5.00
2018-12-31T05:59:28.098Z,5.00
2018-12-31T06:02:13.158Z,4.90
2018-12-31T06:04:58.237Z,4.90
2018-12-31T06:07:43.391Z,5.00
2018-12-31T06:10:28.507Z,5.10
2018-12-31T06:13:13.733Z,5.20
2018-12-31T06:15:58.823Z,5.10
2018-12-31T06:18:43.842Z,5.20
2018-12-31T06:21:28.850Z,5.30
2018-12-31T06:24:13.954Z,5.30
2018-12-31T06:26:59.493Z,5.40
2018-12-31T06:29:44.265Z,5.30
2018-12-31T06:32:29.271Z,5.40
2018-12-31T06:35:14.482Z,5.30
2018-12-31T06:37:59.982Z,5.40
2018-12-31T06:40:44.570Z,5.40
2018-12-31T06:43:29.798Z,5.50
2018-12-31T06:46:14.677Z,5.50
2018-12-31T06:49:00.394Z,5.50
2018-12-31T06:51:45.235Z,5.50
2018-12-31T06:54:30.565Z,5.40
2018-12-31T06:57:15.547Z,5.60
2018-12-31T07:00:00.626Z,5.60
2018-12-31T07:02:45.574Z,5.40
2018-12-31T07:05:30.753Z,5.40
2018-12-31T07:08:16.107Z,5.30
2018-12-31T07:11:01.014Z,5.40
2018-12-31T07:13:45.874Z,5.60
2018-12-31T07:16:31.211Z,5.50
2018-12-31T07:19:16.377Z,5.50
2018-12-31T07:21:48.715Z,5.40
2018-12-31T07:24:40.418Z,5.50
2018-12-31T07:27:25.327Z,5.50
2018-12-31T07:30:10.489Z,5.70
2018-12-31T07:32:55.537Z,5.80
2018-12-31T07:35:40.890Z,5.70
2018-12-31T07:38:26.109Z,5.80
2018-12-31T07:41:11.369Z,5.80
2018-12-31T07:43:56.422Z,5.90
2018-12-31T07:46:41.569Z,5.90
2018-12-31T07:49:26.666Z,5.90
2018-12-31T07:52:11.653Z,5.90
2018-12-31T07:54:56.573Z,5.70
2018-12-31T07:57:42.206Z,5.70
2018-12-31T08:00:25.234Z,5.80
2018-12-31T08:03:09.753Z,5.90
2018-12-31T08:05:54.905Z,6.00
2018-12-31T08:08:40.187Z,5.90
2018-12-31T08:11:24.960Z,5.90
2018-12-31T08:14:10.046Z,6.00
2018-12-31T08:16:55.147Z,6.00
2018-12-31T08:19:40.322Z,6.00
2018-12-31T08:22:25.366Z,6.00
2018-12-31T08:24:57.449Z,6.20
2018-12-31T08:27:41.894Z,6.20
2018-12-31T08:30:36.149Z,6.20
2018-12-31T08:33:21.174Z,6.20
2018-12-31T08:36:06.250Z,6.30
2018-12-31T08:38:51.447Z,6.10
2018-12-31T08:41:36.402Z,6.10
2018-12-31T08:44:21.181Z,6.20
2018-12-31T08:47:06.180Z,6.10
2018-12-31T08:49:51.401Z,6.10
2018-12-31T08:52:36.316Z,6.20
2018-12-31T08:55:28.348Z,6.30
2018-12-31T08:58:00.313Z,6.40
2018-12-31T09:00:45.554Z,6.40
2018-12-31T09:03:30.374Z,6.50
2018-12-31T09:06:02.605Z,6.30
2018-12-31T09:08:54.230Z,6.60
2018-12-31T09:11:39.166Z,6.40
2018-12-31T09:14:11.361Z,6.40
2018-12-31T09:17:03.121Z,6.60
2018-12-31T09:31:05.297Z,6.90
2018-12-31T09:33:50.367Z,6.90
2018-12-31T09:36:36.615Z,6.40
2018-12-31T09:39:21.342Z,6.40
2018-12-31T09:42:06.402Z,6.40
2018-12-31T09:44:38.434Z,6.50
2018-12-31T09:47:30.686Z,6.60
2018-12-31T09:50:15.605Z,6.60
2018-12-31T09:53:01.099Z,6.60
2018-12-31T09:55:45.739Z,6.50
2018-12-31T09:58:30.682Z,6.70
2018-12-31T10:01:15.929Z,6.80
2018-12-31T10:04:01.073Z,6.70
2018-12-31T10:06:45.950Z,6.60
2018-12-31T10:09:31.124Z,6.80
2018-12-31T10:12:16.719Z,6.80
2018-12-31T10:15:01.700Z,6.60
2018-12-31T10:17:46.580Z,6.60
2018-12-31T10:20:31.924Z,6.60
2018-12-31T10:23:16.822Z,6.80
2018-12-31T10:25:49.170Z,6.70
2018-12-31T10:28:21.291Z,6.80
2018-12-31T10:31:12.950Z,6.90
2018-12-31T10:33:58.074Z,6.80
2018-12-31T10:36:42.955Z,6.90
2018-12-31T10:42:30.927Z,7.10
2018-12-31T10:45:15.735Z,7.30
2018-12-31T10:48:00.906Z,7.10
2018-12-31T10:50:46.110Z,7.10
2018-12-31T10:53:30.863Z,7.10
2018-12-31T10:56:16.235Z,7.00
2018-12-31T10:59:01.055Z,7.00
2018-12-31T11:01:46.159Z,7.20
2018-12-31T11:04:31.401Z,7.20
2018-12-31T11:07:16.177Z,7.20
2018-12-31T11:10:01.037Z,7.50
2018-12-31T11:12:46.505Z,7.60
2018-12-31T11:15:18.937Z,7.50
2018-12-31T11:18:11.411Z,7.50
2018-12-31T11:20:56.057Z,7.60
2018-12-31T11:23:41.350Z,7.40
2018-12-31T11:26:13.549Z,7.30
2018-12-31T11:29:05.641Z,7.30
2018-12-31T11:31:50.393Z,7.30
2018-12-31T11:34:35.703Z,7.20
2018-12-31T11:37:20.435Z,7.30
2018-12-31T11:40:05.215Z,7.30
2018-12-31T11:42:50.374Z,7.30
2018-12-31T11:48:07.570Z,7.30
2018-12-31T11:50:53.004Z,7.20
2018-12-31T11:53:25.195Z,7.30
2018-12-31T11:56:16.795Z,7.40
2018-12-31T11:59:01.875Z,7.50
2018-12-31T12:01:47.418Z,7.40
2018-12-31T12:04:32.096Z,7.30
2018-12-31T12:07:17.388Z,7.40
2018-12-31T12:10:02.159Z,7.40
2018-12-31T12:12:47.124Z,7.50
2018-12-31T12:15:32.037Z,7.40
2018-12-31T12:18:17.041Z,7.50
2018-12-31T12:20:49.054Z,7.50
2018-12-31T12:23:33.990Z,7.50
2018-12-31T12:26:18.975Z,7.60
2018-12-31T12:29:04.338Z,7.70
2018-12-31T12:31:49.907Z,7.70
2018-12-31T12:34:35.113Z,7.70
2018-12-31T12:37:20.173Z,7.80
2018-12-31T12:40:05.291Z,7.70
2018-12-31T12:42:50.607Z,7.80
2018-12-31T12:45:22.648Z,7.90
2018-12-31T12:48:14.258Z,7.80
2018-12-31T12:51:08.161Z,7.90
2018-12-31T12:53:52.991Z,7.80
2018-12-31T12:56:38.116Z,7.80
2018-12-31T12:59:23.645Z,8.00
2018-12-31T13:02:08.374Z,7.90
2018-12-31T13:04:53.514Z,8.10
2018-12-31T13:07:38.582Z,8.30
2018-12-31T13:10:10.911Z,8.20
2018-12-31T13:12:43.169Z,8.10
2018-12-31T13:15:27.804Z,7.90
2018-12-31T13:18:12.990Z,7.80
2018-12-31T13:20:57.805Z,7.90
2018-12-31T13:23:42.922Z,7.90
2018-12-31T13:26:28.166Z,8.10
2018-12-31T13:29:13.211Z,8.10
2018-12-31T13:31:58.241Z,8.00
2018-12-31T13:34:43.329Z,7.80
2018-12-31T13:40:34.383Z,8.10
2018-12-31T13:43:29.873Z,8.20
2018-12-31T13:46:15.058Z,8.20
2018-12-31T13:48:59.962Z,8.20
2018-12-31T13:51:44.927Z,8.10
2018-12-31T13:54:29.869Z,8.10
2018-12-31T13:57:14.939Z,8.00
2018-12-31T14:00:00.157Z,8.00
2018-12-31T14:02:44.802Z,8.10
2018-12-31T14:05:30.006Z,8.10
2018-12-31T14:08:14.968Z,8.10
2018-12-31T14:10:59.915Z,8.20
2018-12-31T14:13:45.001Z,8.10
2018-12-31T14:16:30.027Z,8.00
2018-12-31T14:19:14.991Z,8.10
2018-12-31T14:22:00.374Z,8.10
2018-12-31T14:24:44.989Z,8.10
2018-12-31T14:27:30.059Z,8.10
2018-12-31T14:30:16.792Z,8.10
2018-12-31T14:33:02.251Z,8.20
2018-12-31T14:35:47.215Z,8.20
2018-12-31T14:38:32.190Z,8.20
2018-12-31T14:41:17.049Z,8.10
2018-12-31T14:44:02.058Z,7.90
2018-12-31T14:46:47.137Z,7.80
2018-12-31T14:49:38.946Z,7.80
2018-12-31T14:52:24.174Z,7.90
2018-12-31T14:55:09.309Z,7.90
2018-12-31T14:57:54.597Z,7.90
2018-12-31T15:00:39.791Z,7.90
2018-12-31T15:03:25.676Z,7.90
2018-12-31T15:06:10.543Z,8.00
2018-12-31T15:12:01.890Z,7.80
2018-12-31T15:14:46.802Z,7.60
2018-12-31T15:17:31.809Z,7.40
2018-12-31T15:20:16.672Z,7.30
2018-12-31T15:23:01.757Z,7.40
2018-12-31T15:25:46.997Z,7.60
2018-12-31T15:28:32.473Z,7.70
2018-12-31T15:31:17.498Z,7.60
2018-12-31T15:34:02.443Z,7.90
2018-12-31T15:36:47.418Z,8.00
2018-12-31T15:39:32.423Z,7.80
2018-12-31T15:42:17.570Z,7.60
2018-12-31T15:45:02.694Z,7.40
2018-12-31T15:47:47.930Z,7.30
2018-12-31T15:50:32.827Z,7.20
2018-12-31T15:53:17.754Z,7.30
2018-12-31T15:56:02.934Z,7.40
2018-12-31T15:58:54.697Z,7.50
2018-12-31T16:01:40.078Z,7.60
2018-12-31T16:04:25.047Z,7.60
2018-12-31T16:07:10.126Z,7.70
2018-12-31T16:09:55.257Z,7.60
2018-12-31T16:12:40.615Z,7.80
2018-12-31T16:15:25.849Z,7.80
2018-12-31T16:18:10.838Z,7.80
2018-12-31T16:20:56.014Z,7.80
2018-12-31T16:23:41.120Z,7.80
2018-12-31T16:26:26.345Z,7.80
2018-12-31T16:29:11.563Z,7.70
2018-12-31T16:31:56.994Z,7.60
2018-12-31T16:34:41.965Z,7.50
2018-12-31T16:40:18.761Z,7.70
2018-12-31T16:43:03.911Z,7.70
2018-12-31T16:45:49.243Z,7.60
2018-12-31T16:48:34.182Z,7.70
2018-12-31T16:54:23.971Z,7.90
2018-12-31T16:57:08.378Z,7.80
2018-12-31T16:59:53.466Z,7.80
2018-12-31T17:02:38.612Z,7.90
2018-12-31T17:05:23.577Z,7.90
2018-12-31T17:08:08.648Z,7.90
2018-12-31T17:10:53.829Z,7.90
2018-12-31T17:16:24.178Z,7.70
2018-12-31T17:22:01.024Z,7.60
2018-12-31T17:24:46.621Z,7.50
2018-12-31T17:27:31.507Z,7.60
2018-12-31T17:30:04.234Z,7.70
2018-12-31T17:32:49.608Z,7.70
2018-12-31T17:35:34.970Z,7.80
2018-12-31T17:38:19.821Z,7.40
2018-12-31T17:41:04.489Z,7.30
2018-12-31T17:43:50.017Z,7.70
2018-12-31T17:46:34.599Z,7.70
2018-12-31T17:49:19.877Z,7.70
2018-12-31T17:52:04.955Z,7.70
2018-12-31T17:54:49.740Z,7.80
2018-12-31T17:57:34.898Z,7.60
2018-12-31T18:00:20.025Z,7.50
2018-12-31T18:03:05.180Z,7.70
2018-12-31T18:05:49.924Z,7.60
2018-12-31T18:08:35.048Z,7.60
2018-12-31T18:11:20.332Z,7.70
2018-12-31T18:14:05.134Z,7.60
2018-12-31T18:16:50.106Z,7.70
2018-12-31T18:19:35.300Z,7.60
2018-12-31T18:22:20.810Z,7.70
2018-12-31T18:25:05.578Z,7.70
2018-12-31T18:27:50.782Z,7.90
2018-12-31T18:30:22.994Z,7.70
2018-12-31T18:33:07.870Z,7.70
2018-12-31T18:35:53.031Z,7.70
2018-12-31T18:38:38.317Z,7.70
2018-12-31T18:41:23.414Z,7.70
2018-12-31T18:44:08.335Z,7.80
2018-12-31T18:46:53.471Z,7.70
2018-12-31T18:49:38.401Z,7.70
2018-12-31T18:52:23.424Z,7.60
2018-12-31T18:55:08.519Z,7.70
2018-12-31T18:57:53.583Z,7.70
2018-12-31T19:00:38.877Z,7.80
2018-12-31T19:03:23.946Z,7.70
2018-12-31T19:06:09.369Z,7.80
2018-12-31T19:08:54.097Z,7.70
2018-12-31T19:11:39.257Z,7.80
2018-12-31T19:14:24.206Z,7.90
2018-12-31T19:17:09.635Z,7.80
2018-12-31T19:19:54.855Z,7.80
2018-12-31T19:22:39.564Z,7.90
2018-12-31T19:25:24.600Z,7.90
2018-12-31T19:28:09.710Z,7.80
2018-12-31T19:30:54.901Z,7.80
2018-12-31T19:33:39.915Z,8.00
2018-12-31T19:36:25.142Z,7.90
2018-12-31T19:38:57.210Z,7.90
2018-12-31T19:41:42.105Z,7.90
2018-12-31T19:44:26.937Z,7.90
2018-12-31T19:47:12.320Z,7.80
2018-12-31T19:49:57.359Z,7.90
2018-12-31T19:52:42.213Z,7.80
2018-12-31T19:55:27.133Z,7.90
2018-12-31T19:58:12.208Z,7.90
2018-12-31T20:00:57.427Z,7.90
2018-12-31T20:03:42.291Z,7.90
2018-12-31T20:06:27.573Z,7.90
2018-12-31T20:09:12.666Z,7.90
2018-12-31T20:14:41.688Z,8.00
2018-12-31T20:17:26.612Z,8.00
2018-12-31T20:23:01.961Z,7.90
2018-12-31T20:25:46.470Z,8.00
2018-12-31T20:28:31.510Z,7.90
2018-12-31T20:31:03.630Z,7.90
2018-12-31T20:33:48.674Z,8.00
2018-12-31T20:36:33.646Z,8.00
2018-12-31T20:39:19.193Z,8.10
2018-12-31T20:42:04.237Z,8.00
2018-12-31T20:44:49.413Z,8.00
2018-12-31T20:47:33.997Z,8.00
2018-12-31T20:50:19.199Z,8.10
2018-12-31T20:52:51.210Z,8.00
2018-12-31T20:55:36.231Z,8.10
2018-12-31T21:01:06.507Z,8.20
2018-12-31T21:03:51.374Z,8.20
2018-12-31T21:06:36.566Z,8.20
2018-12-31T21:09:21.556Z,8.20
2018-12-31T21:11:53.592Z,8.20
2018-12-31T21:14:38.527Z,8.20
2018-12-31T21:20:07.767Z,8.20
2018-12-31T21:22:52.793Z,8.20
2018-12-31T21:25:37.892Z,8.20
2018-12-31T21:28:22.802Z,8.10
2018-12-31T21:31:07.872Z,8.20
2018-12-31T21:33:52.978Z,8.10
2018-12-31T21:36:38.108Z,8.20
2018-12-31T21:39:22.974Z,8.10
2018-12-31T21:42:08.346Z,8.20
2018-12-31T21:44:53.149Z,8.20
2018-12-31T21:47:38.186Z,8.20
2018-12-31T21:50:23.328Z,8.20
2018-12-31T21:53:08.370Z,8.30
2018-12-31T21:55:53.502Z,8.30
2018-12-31T21:58:38.874Z,8.40
2018-12-31T22:01:23.525Z,8.40
2018-12-31T22:04:08.626Z,8.40
2018-12-31T22:06:53.574Z,8.50
2018-12-31T22:09:38.841Z,8.50
2018-12-31T22:12:23.697Z,8.60
2018-12-31T22:15:09.643Z,8.60
2018-12-31T22:17:54.723Z,8.50
2018-12-31T22:20:39.586Z,8.50
2018-12-31T22:23:24.666Z,8.60
2018-12-31T22:25:56.902Z,8.60
2018-12-31T22:28:48.489Z,8.60
2018-12-31T22:31:33.673Z,8.60
2018-12-31T22:34:18.723Z,8.70
2018-12-31T22:37:03.689Z,8.70
2018-12-31T22:39:48.750Z,8.70
2018-12-31T22:42:33.886Z,8.70
2018-12-31T22:45:18.745Z,8.70
2018-12-31T22:48:03.787Z,8.70
2018-12-31T22:50:48.881Z,8.70
2018-12-31T22:53:33.798Z,8.70
2018-12-31T22:56:18.970Z,8.70
2018-12-31T22:59:04.056Z,8.70
2018-12-31T23:01:49.139Z,8.70
2018-12-31T23:04:34.222Z,8.70
2018-12-31T23:07:19.672Z,8.70
2018-12-31T23:10:04.456Z,8.70
2018-12-31T23:12:49.362Z,8.80
2018-12-31T23:15:34.383Z,8.70
2018-12-31T23:18:19.497Z,8.70
2018-12-31T23:21:04.482Z,8.70
2018-12-31T23:23:49.926Z,8.70
2018-12-31T23:26:34.655Z,8.70
2018-12-31T23:29:19.520Z,8.80
2018-12-31T23:32:04.488Z,8.80
2018-12-31T23:34:48.942Z,8.70
2018-12-31T23:37:33.819Z,8.70
2018-12-31T23:40:18.745Z,8.70
2018-12-31T23:43:06.608Z,8.70
2018-12-31T23:45:51.023Z,8.70
2018-12-31T23:48:37.479Z,8.70
2018-12-31T23:51:23.252Z,8.70
2018-12-31T23:54:07.770Z,8.70
2018-12-31T23:56:53.009Z,8.70
2018-12-31T23:59:38.044Z,8.80
